createdAt,value
2023-05-10T00:01:23.449Z,21.4
2023-05-10T00:06:23.420Z,21.3
2023-05-10T00:11:23.409Z,21.4
2023-05-10T00:16:23.388Z,21.4
2023-05-10T00:21:23.364Z,21.4
2023-05-10T00:26:23.333Z,21.4
2023-05-10T00:31:23.334Z,21.3
2023-05-10T00:36:23.319Z,21.4
2023-05-10T00:41:23.274Z,21.4
2023-05-10T00:46:23.249Z,21.3
2023-05-10T00:51:23.239Z,21.3
2023-05-10T00:56:23.209Z,21.3
2023-05-10T01:01:23.188Z,21.4
2023-05-10T01:06:23.173Z,21.3
2023-05-10T01:11:23.160Z,21.3
2023-05-10T01:16:23.131Z,21.3
2023-05-10T01:21:23.122Z,21.3
2023-05-10T01:26:23.127Z,21.3
2023-05-10T01:31:23.066Z,21.3
2023-05-10T01:36:23.045Z,21.3
2023-05-10T01:41:23.016Z,21.3
2023-05-10T01:46:22.996Z,21.4
2023-05-10T01:51:22.982Z,21.3
2023-05-10T01:56:22.951Z,21.3
2023-05-10T02:01:22.925Z,21.3
2023-05-10T02:06:22.925Z,21.3
2023-05-10T02:11:22.906Z,21.3
2023-05-10T02:16:22.872Z,21.3
2023-05-10T02:21:22.863Z,21.3
2023-05-10T02:26:22.827Z,21.3
2023-05-10T02:31:22.803Z,21.3
2023-05-10T02:36:22.791Z,21.3
2023-05-10T02:41:22.767Z,21.3
2023-05-10T02:46:22.738Z,21.3
2023-05-10T02:51:22.724Z,21.3
2023-05-10T02:56:22.696Z,21.3
2023-05-10T03:01:22.672Z,21.3
2023-05-10T03:06:22.670Z,21.3
2023-05-10T03:11:22.641Z,21.3
2023-05-10T03:16:22.622Z,21.3
2023-05-10T03:21:22.593Z,21.3
2023-05-10T03:26:22.589Z,21.3
2023-05-10T03:31:22.555Z,21.3
2023-05-10T03:36:22.536Z,21.3
2023-05-10T03:41:22.522Z,21.3
2023-05-10T03:46:22.494Z,21.3
2023-05-10T03:51:22.469Z,21.3
2023-05-10T03:56:22.462Z,21.3
2023-05-10T04:01:22.448Z,21.3
2023-05-10T04:06:22.400Z,21.3
2023-05-10T04:11:22.442Z,21.3
2023-05-10T04:16:22.361Z,21.3
2023-05-10T04:21:22.410Z,21.3
2023-05-10T04:26:22.352Z,21.3
2023-05-10T04:31:22.291Z,21.3
2023-05-10T04:36:22.270Z,21.3
2023-05-10T04:41:22.256Z,21.3
2023-05-10T04:46:22.226Z,21.3
2023-05-10T04:51:22.208Z,21.3
2023-05-10T04:56:22.179Z,21.3
2023-05-10T05:01:22.249Z,21.3
2023-05-10T05:06:22.143Z,21.3
2023-05-10T05:11:22.112Z,21.3
2023-05-10T05:16:22.111Z,21.2
2023-05-10T05:21:22.154Z,21.3
2023-05-10T05:26:22.062Z,21.2
2023-05-10T05:31:22.050Z,21.3
2023-05-10T05:36:22.116Z,21.3
2023-05-10T05:41:21.998Z,21.3
2023-05-10T05:46:22.023Z,21.3
2023-05-10T05:51:22.051Z,21.3
2023-05-10T05:56:21.948Z,21.3
2023-05-10T06:01:21.989Z,21.2
2023-05-10T06:06:22.048Z,21.2
2023-05-10T06:11:21.925Z,21.2
2023-05-10T06:16:21.885Z,21.2
2023-05-10T06:21:21.826Z,21.2
2023-05-10T06:26:21.829Z,21.2
2023-05-10T06:31:21.865Z,21.2
2023-05-10T06:36:21.778Z,21.2
2023-05-10T06:41:21.742Z,21.2
2023-05-10T06:46:21.756Z,21.2
2023-05-10T06:51:21.694Z,21.2
2023-05-10T06:56:21.676Z,21.2
2023-05-10T07:01:21.695Z,21.2
2023-05-10T07:06:21.633Z,21.2
2023-05-10T07:11:21.691Z,21.2
2023-05-10T07:16:21.582Z,21.2
2023-05-10T07:21:21.569Z,21.4
2023-05-10T07:26:21.572Z,21.3
2023-05-10T07:31:21.662Z,21.3
2023-05-10T07:36:21.499Z,21.3
2023-05-10T07:41:21.479Z,21.3
2023-05-10T07:46:21.448Z,21.3
2023-05-10T07:51:21.481Z,21.3
2023-05-10T07:56:21.536Z,21.3
2023-05-10T08:01:21.394Z,21.3
2023-05-10T08:06:21.372Z,21.3
2023-05-10T08:11:21.355Z,21.3
2023-05-10T08:16:21.332Z,21.3
2023-05-10T08:21:21.365Z,21.3
2023-05-10T08:26:21.397Z,21.3
2023-05-10T08:31:21.273Z,21.3
2023-05-10T08:36:21.235Z,21.3
2023-05-10T08:41:21.411Z,21.3
2023-05-10T08:46:21.208Z,21.3
2023-05-10T08:51:21.257Z,21.3
2023-05-10T08:56:21.225Z,21.3
2023-05-10T09:01:21.169Z,21.3
2023-05-10T09:06:21.187Z,21.3
2023-05-10T09:11:21.121Z,21.3
2023-05-10T09:16:21.081Z,21.3
2023-05-10T09:21:21.051Z,21.3
2023-05-10T09:26:21.050Z,21.3
2023-05-10T09:31:21.021Z,21.3
2023-05-10T09:36:20.998Z,21.3
2023-05-10T09:41:20.991Z,21.3
2023-05-10T09:46:20.986Z,21.3
2023-05-10T09:51:20.920Z,21.3
2023-05-10T09:56:20.901Z,21.3
2023-05-10T10:01:20.876Z,21.3
2023-05-10T10:06:20.865Z,21.3
2023-05-10T10:11:20.842Z,21.3
2023-05-10T10:16:20.838Z,21.3
2023-05-10T10:21:20.887Z,21.3
2023-05-10T10:26:20.779Z,21.3
2023-05-10T10:31:20.750Z,21.3
2023-05-10T10:36:20.908Z,21.4
2023-05-10T10:41:20.711Z,21.4
2023-05-10T10:46:20.745Z,21.4
2023-05-10T10:51:20.667Z,21.4
2023-05-10T10:56:20.791Z,21.4
2023-05-10T11:01:20.664Z,21.4
2023-05-10T11:06:20.607Z,21.4
2023-05-10T11:11:20.579Z,21.4
2023-05-10T11:16:20.560Z,21.4
2023-05-10T11:21:20.577Z,21.4
2023-05-10T11:26:20.555Z,21.4
2023-05-10T11:31:20.494Z,21.4
2023-05-10T11:36:20.472Z,21.4
2023-05-10T11:41:20.446Z,21.4
2023-05-10T11:46:20.433Z,21.4
2023-05-10T11:51:20.418Z,21.4
2023-05-10T11:56:20.387Z,21.4
2023-05-10T12:01:20.387Z,21.4
2023-05-10T12:06:20.346Z,21.4
2023-05-10T12:11:20.321Z,21.4
2023-05-10T12:16:20.297Z,21.4
2023-05-10T12:21:20.287Z,21.4
2023-05-10T12:26:20.265Z,21.4
2023-05-10T12:31:20.240Z,21.4
2023-05-10T12:36:20.212Z,21.3
2023-05-10T12:41:20.216Z,21.3
2023-05-10T12:46:20.265Z,21.3
2023-05-10T12:51:20.154Z,21.3
2023-05-10T12:56:20.167Z,21.3
2023-05-10T13:01:20.117Z,21.3
2023-05-10T13:06:20.149Z,21.3
2023-05-10T13:11:20.090Z,21.3
2023-05-10T13:16:20.040Z,21.3
2023-05-10T13:21:20.182Z,21.2
2023-05-10T13:26:20.119Z,21.2
2023-05-10T13:31:19.989Z,21.2
2023-05-10T13:36:20.067Z,21.2
2023-05-10T13:41:19.940Z,21.3
2023-05-10T13:46:19.931Z,21.2
2023-05-10T13:51:19.988Z,21.3
2023-05-10T13:56:19.876Z,21.3
2023-05-10T14:01:19.857Z,21.1
2023-05-10T14:06:19.946Z,20.9
2023-05-10T14:11:19.815Z,20.8
2023-05-10T14:16:19.834Z,20.8
2023-05-10T14:21:19.843Z,20.7
2023-05-10T14:26:19.836Z,20.6
2023-05-10T14:31:19.739Z,20.6
2023-05-10T14:36:19.709Z,20.5
2023-05-10T14:41:19.705Z,20.4
2023-05-10T14:46:19.723Z,20.3
2023-05-10T14:51:19.694Z,20.3
2023-05-10T14:56:19.779Z,20.3
2023-05-10T15:01:19.793Z,20.2
2023-05-10T15:06:19.613Z,20.1
2023-05-10T15:11:19.550Z,20
2023-05-10T15:16:19.668Z,20
2023-05-10T15:21:19.658Z,20.1
2023-05-10T15:26:19.654Z,20.1
2023-05-10T15:31:19.551Z,20.1
2023-05-10T15:36:19.559Z,20.2
2023-05-10T15:41:19.449Z,20.3
2023-05-10T15:46:19.513Z,20.3
2023-05-10T15:51:19.390Z,20.3
2023-05-10T15:56:19.410Z,20.4
2023-05-10T16:01:19.406Z,20.4
2023-05-10T16:06:19.317Z,20.4
2023-05-10T16:11:19.337Z,20.5
2023-05-10T16:16:19.289Z,20.5
2023-05-10T16:21:19.287Z,20.5
2023-05-10T16:26:19.232Z,20.6
2023-05-10T16:31:19.248Z,20.6
2023-05-10T16:36:19.186Z,20.6
2023-05-10T16:41:19.220Z,20.6
2023-05-10T16:46:19.163Z,20.7
2023-05-10T16:51:19.132Z,20.7
2023-05-10T16:56:19.099Z,20.7
2023-05-10T17:01:19.134Z,20.7
2023-05-10T17:06:19.062Z,20.7
2023-05-10T17:11:19.040Z,20.7
2023-05-10T17:16:19.017Z,20.8
2023-05-10T17:21:19.066Z,20.8
2023-05-10T17:26:18.973Z,20.8
2023-05-10T17:31:19.093Z,20.8
2023-05-10T17:36:18.939Z,20.8
2023-05-10T17:41:19.088Z,20.8
2023-05-10T17:46:18.904Z,20.8
2023-05-10T17:51:18.882Z,20.9
2023-05-10T17:56:18.869Z,20.9
2023-05-10T18:01:18.826Z,20.9
2023-05-10T18:06:18.806Z,20.9
2023-05-10T18:11:18.904Z,20.9
2023-05-10T18:16:18.757Z,20.9
2023-05-10T18:21:18.932Z,20.9
2023-05-10T18:26:18.877Z,20.9
2023-05-10T18:31:18.704Z,20.9
2023-05-10T18:36:18.720Z,20.9
2023-05-10T18:41:18.681Z,20.9
2023-05-10T18:46:18.627Z,20.9
2023-05-10T18:51:18.662Z,20.9
2023-05-10T18:56:18.680Z,20.9
2023-05-10T19:01:18.564Z,20.9
2023-05-10T19:06:18.633Z,20.9
2023-05-10T19:11:18.524Z,20.9
2023-05-10T19:16:20.125Z,20.9
2023-05-10T19:21:18.598Z,20.9
2023-05-10T19:26:18.514Z,20.9
2023-05-10T19:31:18.671Z,20.9
2023-05-10T19:36:18.522Z,20.9
2023-05-10T19:41:18.586Z,20.9
2023-05-10T19:46:18.390Z,20.9
2023-05-10T19:51:18.501Z,20.9
2023-05-10T19:56:18.326Z,20.9
2023-05-10T20:01:18.438Z,21
2023-05-10T20:06:18.449Z,20.9
2023-05-10T20:11:18.377Z,20.9
2023-05-10T20:16:18.326Z,20.9
2023-05-10T20:21:18.290Z,20.9
2023-05-10T20:26:18.201Z,20.9
2023-05-10T20:31:18.249Z,20.9
2023-05-10T20:36:18.162Z,20.9
2023-05-10T20:41:18.137Z,20.9
2023-05-10T20:46:18.152Z,20.9
2023-05-10T20:51:18.111Z,20.9
2023-05-10T20:56:18.072Z,20.9
2023-05-10T21:01:18.050Z,21
2023-05-10T21:06:18.033Z,20.9
2023-05-10T21:11:18.010Z,20.9
2023-05-10T21:16:18.035Z,20.9
2023-05-10T21:21:17.973Z,20.9
2023-05-10T21:26:17.952Z,20.9
2023-05-10T21:31:17.999Z,21
2023-05-10T21:36:17.913Z,20.9
2023-05-10T21:41:17.892Z,20.9
2023-05-10T21:46:17.923Z,20.9
2023-05-10T21:51:17.874Z,21
2023-05-10T21:56:17.849Z,20.9
2023-05-10T22:01:17.878Z,20.9
2023-05-10T22:06:17.865Z,20.9
2023-05-10T22:11:17.776Z,20.9
2023-05-10T22:16:17.758Z,20.9
2023-05-10T22:21:17.764Z,20.9
2023-05-10T22:26:17.692Z,20.9
2023-05-10T22:31:17.677Z,20.9
2023-05-10T22:36:17.654Z,20.9
2023-05-10T22:41:17.653Z,20.9
2023-05-10T22:46:17.612Z,20.9
2023-05-10T22:51:17.591Z,20.9
2023-05-10T22:56:17.559Z,20.9
2023-05-10T23:01:17.548Z,20.9
2023-05-10T23:06:17.527Z,20.9
2023-05-10T23:11:17.569Z,20.9
2023-05-10T23:16:17.473Z,20.9
2023-05-10T23:21:17.456Z,20.9
2023-05-10T23:26:17.427Z,20.9
2023-05-10T23:31:17.406Z,20.9
2023-05-10T23:36:17.407Z,20.9
2023-05-10T23:41:17.373Z,20.9
2023-05-10T23:46:17.363Z,21
2023-05-10T23:51:17.340Z,20.9
2023-05-10T23:56:17.311Z,20.9
